createdAt,value
2022-12-19T00:01:37.879Z,19.27
2022-12-19T00:04:09.811Z,19.83
2022-12-19T00:06:43.945Z,18.00
2022-12-19T00:09:14.562Z,16.83
2022-12-19T00:11:44.475Z,16.05
2022-12-19T00:14:13.333Z,17.40
2022-12-19T00:16:42.358Z,12.07
2022-12-19T00:19:12.842Z,15.38
2022-12-19T00:21:41.689Z,16.33
2022-12-19T00:24:20.724Z,13.38
2022-12-19T00:26:51.192Z,10.20
2022-12-19T00:29:21.476Z,12.52
2022-12-19T00:31:50.331Z,16.25
2022-12-19T00:34:19.042Z,25.10
2022-12-19T00:36:48.059Z,21.60
2022-12-19T00:39:17.051Z,16.52
2022-12-19T00:41:47.453Z,19.13
2022-12-19T00:44:17.011Z,16.90
2022-12-19T00:46:52.440Z,15.57
2022-12-19T00:49:22.972Z,16.60
2022-12-19T00:51:51.514Z,16.20
2022-12-19T00:54:20.387Z,14.90
2022-12-19T00:56:49.778Z,16.23
2022-12-19T00:59:23.945Z,16.07
2022-12-19T01:01:58.594Z,15.98
2022-12-19T01:04:29.224Z,15.48
2022-12-19T01:07:01.959Z,16.17
2022-12-19T01:09:36.285Z,16.10
2022-12-19T01:12:25.336Z,15.85
2022-12-19T01:15:02.939Z,16.27
2022-12-19T01:17:44.311Z,14.87
2022-12-19T01:20:16.666Z,15.30
2022-12-19T01:22:47.960Z,15.90
2022-12-19T01:25:16.942Z,13.68
2022-12-19T01:27:45.798Z,13.93
2022-12-19T01:30:15.600Z,13.35
2022-12-19T01:32:45.919Z,12.70
2022-12-19T01:35:21.408Z,12.40
2022-12-19T01:38:07.278Z,14.43
2022-12-19T01:40:38.538Z,13.38
2022-12-19T01:43:13.478Z,12.05
2022-12-19T01:45:45.966Z,13.85
2022-12-19T01:48:43.261Z,13.55
2022-12-19T01:51:21.168Z,13.82
2022-12-19T01:53:55.656Z,14.07
2022-12-19T01:56:30.641Z,14.57
2022-12-19T01:59:06.526Z,14.05
2022-12-19T02:01:50.873Z,15.82
2022-12-19T02:04:31.958Z,14.70
2022-12-19T02:07:15.536Z,16.00
2022-12-19T02:09:56.866Z,17.52
2022-12-19T02:12:42.662Z,14.82
2022-12-19T02:15:15.341Z,14.50
2022-12-19T02:17:58.870Z,18.25
2022-12-19T02:21:07.612Z,15.77
2022-12-19T02:24:03.966Z,16.65
2022-12-19T02:26:53.060Z,21.13
2022-12-19T02:29:51.630Z,15.40
2022-12-19T02:33:01.582Z,14.82
2022-12-19T02:35:37.765Z,15.70
2022-12-19T02:38:33.465Z,16.98
2022-12-19T02:41:15.192Z,15.90
2022-12-19T02:43:56.824Z,14.23
2022-12-19T02:46:31.026Z,13.57
2022-12-19T02:49:00.469Z,16.08
2022-12-19T02:51:29.127Z,17.67
2022-12-19T02:53:58.376Z,19.20
2022-12-19T02:56:43.205Z,12.73
2022-12-19T02:59:48.390Z,11.93
2022-12-19T03:02:30.733Z,11.77
2022-12-19T03:05:38.121Z,12.13
2022-12-19T03:08:11.696Z,11.85
2022-12-19T03:10:59.985Z,11.82
2022-12-19T03:13:35.148Z,11.88
2022-12-19T03:16:05.889Z,17.58
2022-12-19T03:18:35.397Z,14.50
2022-12-19T03:21:03.934Z,14.88
2022-12-19T03:23:33.462Z,11.68
2022-12-19T03:26:09.558Z,13.03
2022-12-19T03:29:12.236Z,20.50
2022-12-19T03:31:43.338Z,38.92
2022-12-19T03:34:38.164Z,22.70
2022-12-19T03:37:13.782Z,20.75
2022-12-19T03:39:46.776Z,25.75
2022-12-19T03:42:36.421Z,21.10
2022-12-19T03:45:08.055Z,23.60
2022-12-19T03:47:52.560Z,21.98
2022-12-19T03:50:25.633Z,20.25
2022-12-19T03:53:14.490Z,21.20
2022-12-19T03:55:56.145Z,16.47
2022-12-19T03:58:39.236Z,15.07
2022-12-19T04:01:09.136Z,21.05
2022-12-19T04:03:38.324Z,15.52
2022-12-19T04:06:08.463Z,15.38
2022-12-19T04:08:38.283Z,14.57
2022-12-19T04:11:15.026Z,19.55
2022-12-19T04:14:08.191Z,19.70
2022-12-19T04:17:08.971Z,19.20
2022-12-19T04:19:49.627Z,18.42
2022-12-19T04:22:26.709Z,21.30
2022-12-19T04:24:57.120Z,17.63
2022-12-19T04:27:32.092Z,19.67
2022-12-19T04:30:03.783Z,14.43
2022-12-19T04:32:37.997Z,16.45
2022-12-19T04:35:07.856Z,15.23
2022-12-19T04:37:36.770Z,12.73
2022-12-19T04:40:07.421Z,11.55
2022-12-19T04:42:36.690Z,14.60
2022-12-19T04:45:07.031Z,11.88
2022-12-19T04:47:36.683Z,11.43
2022-12-19T04:50:06.740Z,13.15
2022-12-19T04:52:36.213Z,15.98
2022-12-19T04:55:05.149Z,15.35
2022-12-19T04:57:34.380Z,15.25
2022-12-19T05:00:04.879Z,14.35
2022-12-19T05:02:34.277Z,14.57
2022-12-19T05:05:03.557Z,13.75
2022-12-19T05:07:32.935Z,17.08
2022-12-19T05:10:01.671Z,18.20
2022-12-19T05:12:31.407Z,19.00
2022-12-19T05:15:00.143Z,19.13
2022-12-19T05:17:28.996Z,23.35
2022-12-19T05:19:57.594Z,19.17
2022-12-19T05:22:30.201Z,19.85
2022-12-19T05:24:59.397Z,19.33
2022-12-19T05:27:31.704Z,18.83
2022-12-19T05:30:00.685Z,20.92
2022-12-19T05:32:33.350Z,21.40
2022-12-19T05:35:02.436Z,19.48
2022-12-19T05:37:31.124Z,19.42
2022-12-19T05:39:59.973Z,18.50
2022-12-19T05:42:28.697Z,17.23
2022-12-19T05:44:57.835Z,19.58
2022-12-19T05:47:26.488Z,19.67
2022-12-19T05:49:55.464Z,20.73
2022-12-19T05:52:25.548Z,19.80
2022-12-19T05:54:54.452Z,20.20
2022-12-19T05:57:23.783Z,19.80
2022-12-19T05:59:53.101Z,22.05
2022-12-19T06:02:22.486Z,20.20
2022-12-19T06:04:51.488Z,20.95
2022-12-19T06:07:21.263Z,20.95
2022-12-19T06:09:51.205Z,20.10
2022-12-19T06:12:20.257Z,24.27
2022-12-19T06:14:49.126Z,22.90
2022-12-19T06:17:20.791Z,22.20
2022-12-19T06:19:50.370Z,19.38
2022-12-19T06:22:19.385Z,21.80
2022-12-19T06:24:48.895Z,22.33
2022-12-19T06:27:17.738Z,18.08
2022-12-19T06:29:47.558Z,17.50
2022-12-19T06:32:16.470Z,17.38
2022-12-19T06:35:03.609Z,19.63
2022-12-19T06:37:33.102Z,14.57
2022-12-19T06:40:01.926Z,17.10
2022-12-19T06:42:31.982Z,14.27
2022-12-19T06:45:01.003Z,15.38
2022-12-19T06:47:29.796Z,16.38
2022-12-19T06:49:58.479Z,13.48
2022-12-19T06:52:27.392Z,16.67
2022-12-19T06:54:56.908Z,15.02
2022-12-19T06:57:26.021Z,15.68
2022-12-19T06:59:55.624Z,19.13
2022-12-19T07:02:31.176Z,18.43
2022-12-19T07:05:05.202Z,19.75
2022-12-19T07:07:34.743Z,17.95
2022-12-19T07:10:04.780Z,23.00
2022-12-19T07:12:34.942Z,20.55
2022-12-19T07:15:03.878Z,20.95
2022-12-19T07:17:32.758Z,18.77
2022-12-19T07:20:05.244Z,20.00
2022-12-19T07:22:37.500Z,20.00
2022-12-19T07:25:07.478Z,24.17
2022-12-19T07:27:36.863Z,19.90
2022-12-19T07:30:09.451Z,24.70
2022-12-19T07:32:38.200Z,22.40
2022-12-19T07:35:08.508Z,22.23
2022-12-19T07:37:38.149Z,22.70
2022-12-19T07:40:07.610Z,23.98
2022-12-19T07:42:36.533Z,21.63
2022-12-19T07:45:05.316Z,24.60
2022-12-19T07:47:34.939Z,25.20
2022-12-19T07:50:03.917Z,23.52
2022-12-19T07:52:33.570Z,24.65
2022-12-19T07:55:02.869Z,26.05
2022-12-19T07:57:31.922Z,27.30
2022-12-19T08:00:00.598Z,25.90
2022-12-19T08:02:29.965Z,26.90
2022-12-19T08:04:59.669Z,26.10
2022-12-19T08:07:29.224Z,25.03
2022-12-19T08:09:57.893Z,24.92
2022-12-19T08:12:27.900Z,24.30
2022-12-19T08:14:57.460Z,25.40
2022-12-19T08:17:27.172Z,27.38
2022-12-19T08:19:55.985Z,30.67
2022-12-19T08:22:24.902Z,25.15
2022-12-19T08:24:53.898Z,27.13
2022-12-19T08:27:22.764Z,28.25
2022-12-19T08:29:52.105Z,26.05
2022-12-19T08:32:22.024Z,24.02
2022-12-19T08:34:51.785Z,25.93
2022-12-19T08:37:20.743Z,25.05
2022-12-19T08:39:50.978Z,22.65
2022-12-19T08:42:19.709Z,26.38
2022-12-19T08:44:48.861Z,25.83
2022-12-19T08:47:17.661Z,25.25
2022-12-19T08:49:46.630Z,24.17
2022-12-19T08:52:15.302Z,25.25
2022-12-19T08:54:46.597Z,24.75
2022-12-19T08:57:34.906Z,27.05
2022-12-19T09:00:07.221Z,26.25
2022-12-19T09:02:37.219Z,24.27
2022-12-19T09:06:05.461Z,27.20
2022-12-19T09:07:55.383Z,24.90
2022-12-19T09:10:24.028Z,25.63
2022-12-19T09:12:57.699Z,25.00
2022-12-19T09:15:27.157Z,22.75
2022-12-19T09:17:55.817Z,25.02
2022-12-19T09:20:24.740Z,25.65
2022-12-19T09:22:53.624Z,27.63
2022-12-19T09:25:22.417Z,25.55
2022-12-19T09:28:26.514Z,33.25
2022-12-19T09:30:40.404Z,31.05
2022-12-19T09:33:09.026Z,31.00
2022-12-19T09:35:38.357Z,28.02
2022-12-19T09:38:06.879Z,28.30
2022-12-19T09:41:09.313Z,28.33
2022-12-19T09:44:05.083Z,31.02
2022-12-19T09:46:56.538Z,30.08
2022-12-19T09:49:46.916Z,27.25
2022-12-19T09:52:41.991Z,33.97
2022-12-19T09:55:23.701Z,27.90
2022-12-19T09:58:10.686Z,29.40
2022-12-19T10:00:46.436Z,29.50
2022-12-19T10:04:07.070Z,32.10
2022-12-19T10:07:18.626Z,29.08
2022-12-19T10:10:58.079Z,29.97
2022-12-19T10:12:51.412Z,31.75
2022-12-19T10:16:00.323Z,30.27
2022-12-19T10:19:02.964Z,28.90
2022-12-19T10:22:16.244Z,32.25
2022-12-19T10:24:38.081Z,28.75
2022-12-19T10:27:27.345Z,29.95
2022-12-19T10:30:16.980Z,31.33
2022-12-19T10:33:21.031Z,29.15
2022-12-19T10:36:01.624Z,29.65
2022-12-19T10:38:40.265Z,29.33
2022-12-19T10:41:23.149Z,30.33
2022-12-19T10:43:59.958Z,26.30
2022-12-19T10:46:42.850Z,27.83
2022-12-19T10:49:19.781Z,27.95
2022-12-19T10:51:57.530Z,29.40
2022-12-19T10:54:38.525Z,29.08
2022-12-19T10:57:26.083Z,30.63
2022-12-19T11:00:06.591Z,29.08
2022-12-19T11:02:44.495Z,27.97
2022-12-19T11:05:26.161Z,31.08
2022-12-19T11:08:08.674Z,34.17
2022-12-19T11:13:22.957Z,28.52
2022-12-19T11:18:50.141Z,29.95
2022-12-19T11:23:47.269Z,25.67
2022-12-19T11:29:18.089Z,27.52
2022-12-19T11:30:09.729Z,31.75
2022-12-19T11:30:41.630Z,27.25
2022-12-19T11:30:48.176Z,30.95
2022-12-19T11:34:29.713Z,24.98
2022-12-19T11:37:24.973Z,25.83
2022-12-19T11:40:03.310Z,23.13
2022-12-19T11:43:10.869Z,24.83
2022-12-19T11:45:51.055Z,30.77
2022-12-19T11:48:38.696Z,27.15
2022-12-19T11:51:19.588Z,36.85
2022-12-19T11:54:05.955Z,37.20
2022-12-19T11:56:36.156Z,31.08
2022-12-19T11:59:37.049Z,34.08
2022-12-19T12:02:29.999Z,29.55
2022-12-19T12:05:07.999Z,25.08
2022-12-19T12:09:20.782Z,28.77
2022-12-19T12:16:11.670Z,25.67
2022-12-19T12:23:31.069Z,27.23
2022-12-19T12:31:16.284Z,32.90
2022-12-19T12:31:31.888Z,35.33
2022-12-19T12:31:53.069Z,33.38
2022-12-19T12:31:58.469Z,36.90
2022-12-19T12:32:02.268Z,32.17
2022-12-19T12:35:33.432Z,35.20
2022-12-19T12:38:29.920Z,33.25
2022-12-19T12:41:14.098Z,34.35
2022-12-19T12:44:03.097Z,63.55
2022-12-19T12:46:51.184Z,26.15
2022-12-19T12:49:41.898Z,42.90
2022-12-19T12:52:21.113Z,24.55
2022-12-19T12:54:51.624Z,27.95
2022-12-19T12:57:30.138Z,29.57
2022-12-19T13:00:26.889Z,27.30
2022-12-19T13:03:17.717Z,27.88
2022-12-19T13:06:07.310Z,31.38
2022-12-19T13:09:18.104Z,27.92
2022-12-19T13:12:21.719Z,27.98
2022-12-19T13:17:51.277Z,29.95
2022-12-19T13:20:20.263Z,29.48
2022-12-19T13:22:59.355Z,31.80
2022-12-19T13:25:28.237Z,29.88
2022-12-19T13:28:24.432Z,32.05
2022-12-19T13:31:18.674Z,32.17
2022-12-19T13:33:55.843Z,34.83
2022-12-19T13:39:50.026Z,36.80
2022-12-19T13:40:11.147Z,37.22
2022-12-19T13:43:22.684Z,42.33
2022-12-19T13:45:55.904Z,41.67
2022-12-19T13:48:34.542Z,44.67
2022-12-19T13:51:14.465Z,51.70
2022-12-19T13:53:45.316Z,49.60
2022-12-19T13:56:17.212Z,43.83
2022-12-19T13:58:56.754Z,44.97
2022-12-19T14:01:33.202Z,38.72
2022-12-19T14:04:29.727Z,41.30
2022-12-19T14:07:36.912Z,40.78
2022-12-19T14:11:29.738Z,42.17
2022-12-19T14:13:47.550Z,44.85
2022-12-19T14:16:15.381Z,39.55
2022-12-19T14:18:51.083Z,41.90
2022-12-19T14:22:05.677Z,42.13
2022-12-19T14:24:13.669Z,37.28
2022-12-19T14:28:21.003Z,39.65
2022-12-19T14:30:28.572Z,48.53
2022-12-19T14:33:43.989Z,49.63
2022-12-19T14:36:08.398Z,47.33
2022-12-19T14:39:23.113Z,39.97
2022-12-19T14:41:48.335Z,41.38
2022-12-19T14:54:14.692Z,36.53
2022-12-19T14:54:16.317Z,40.15
2022-12-19T14:54:23.671Z,36.42
2022-12-19T14:54:37.413Z,36.58
2022-12-19T14:59:28.412Z,33.15
2022-12-19T15:02:02.951Z,32.15
2022-12-19T15:04:55.004Z,28.30
2022-12-19T15:07:30.721Z,33.85
2022-12-19T15:11:07.925Z,33.17
2022-12-19T15:14:57.536Z,34.40
2022-12-19T15:16:30.818Z,35.97
2022-12-19T15:19:02.979Z,36.53
2022-12-19T15:21:32.721Z,40.03
2022-12-19T15:24:01.304Z,46.42
2022-12-19T15:26:47.652Z,47.63
2022-12-19T15:29:21.829Z,47.75
2022-12-19T15:31:51.264Z,45.00
2022-12-19T15:34:37.949Z,45.37
2022-12-19T15:37:11.012Z,46.53
2022-12-19T15:39:44.504Z,45.45
2022-12-19T15:42:25.784Z,39.28
2022-12-19T15:45:01.319Z,41.55
2022-12-19T15:47:38.844Z,38.17
2022-12-19T15:50:21.725Z,38.95
2022-12-19T15:52:51.447Z,36.75
2022-12-19T15:55:21.601Z,30.33
2022-12-19T15:58:00.543Z,29.00
2022-12-19T16:00:37.983Z,26.33
2022-12-19T16:03:23.298Z,26.92
2022-12-19T16:05:54.380Z,24.75
2022-12-19T16:08:27.126Z,25.05
2022-12-19T16:11:01.774Z,26.27
2022-12-19T16:13:37.252Z,23.77
2022-12-19T16:16:15.015Z,22.83
2022-12-19T16:18:46.649Z,24.30
2022-12-19T16:21:33.754Z,25.30
2022-12-19T16:24:03.874Z,26.73
2022-12-19T16:26:44.912Z,25.17
2022-12-19T16:29:21.024Z,22.13
2022-12-19T16:31:50.484Z,25.05
2022-12-19T16:34:23.406Z,24.13
2022-12-19T16:36:55.157Z,20.65
2022-12-19T16:39:26.932Z,22.80
2022-12-19T16:41:55.809Z,21.25
2022-12-19T16:44:34.466Z,19.30
2022-12-19T16:47:07.424Z,19.73
2022-12-19T16:49:36.629Z,18.10
2022-12-19T16:52:05.483Z,19.25
2022-12-19T16:54:45.211Z,18.10
2022-12-19T16:57:25.945Z,17.85
2022-12-19T16:59:56.377Z,21.50
2022-12-19T17:02:46.522Z,20.23
2022-12-19T17:05:24.763Z,19.50
2022-12-19T17:07:58.865Z,20.20
2022-12-19T17:10:34.974Z,19.85
2022-12-19T17:13:04.627Z,22.20
2022-12-19T17:15:37.468Z,19.58
2022-12-19T17:18:26.730Z,21.40
2022-12-19T17:20:57.248Z,22.30
2022-12-19T17:23:33.566Z,22.17
2022-12-19T17:26:17.466Z,22.27
2022-12-19T17:28:50.492Z,22.70
2022-12-19T17:31:27.052Z,24.95
2022-12-19T17:33:59.669Z,26.90
2022-12-19T17:36:37.629Z,27.58
2022-12-19T17:39:29.779Z,25.20
2022-12-19T17:42:22.112Z,25.02
2022-12-19T17:44:52.129Z,27.23
2022-12-19T17:47:21.920Z,27.05
2022-12-19T17:49:50.933Z,25.17
2022-12-19T17:52:20.966Z,26.85
2022-12-19T17:54:50.731Z,29.33
2022-12-19T17:57:21.061Z,29.70
2022-12-19T17:59:50.008Z,31.77
2022-12-19T18:02:27.799Z,29.02
2022-12-19T18:04:56.721Z,32.42
2022-12-19T18:07:25.509Z,27.95
2022-12-19T18:09:54.573Z,31.92
2022-12-19T18:12:23.206Z,28.90
2022-12-19T18:14:52.314Z,27.83
2022-12-19T18:17:26.097Z,29.23
2022-12-19T18:19:55.352Z,27.38
2022-12-19T18:22:24.262Z,32.47
2022-12-19T18:24:53.862Z,30.20
2022-12-19T18:27:22.672Z,29.38
2022-12-19T18:29:51.692Z,27.75
2022-12-19T18:32:21.697Z,29.10
2022-12-19T18:34:51.265Z,27.48
2022-12-19T18:37:20.007Z,26.75
2022-12-19T18:39:50.060Z,29.52
2022-12-19T18:42:21.595Z,29.80
2022-12-19T18:44:50.664Z,28.85
2022-12-19T18:47:24.528Z,29.35
2022-12-19T18:49:53.729Z,29.75
2022-12-19T18:52:22.309Z,27.33
2022-12-19T18:54:51.065Z,28.38
2022-12-19T18:57:19.895Z,26.50
2022-12-19T18:59:49.389Z,25.13
2022-12-19T19:02:28.879Z,27.80
2022-12-19T19:04:59.825Z,27.50
2022-12-19T19:07:28.967Z,28.08
2022-12-19T19:09:57.661Z,26.45
2022-12-19T19:12:41.587Z,26.95
2022-12-19T19:15:11.964Z,26.63
2022-12-19T19:17:41.919Z,26.95
2022-12-19T19:20:10.880Z,28.70
2022-12-19T19:22:39.561Z,27.35
2022-12-19T19:25:10.149Z,26.88
2022-12-19T19:27:40.342Z,25.05
2022-12-19T19:30:10.809Z,28.63
2022-12-19T19:32:45.640Z,26.77
2022-12-19T19:35:19.665Z,28.75
2022-12-19T19:37:51.223Z,27.35
2022-12-19T19:40:20.824Z,26.63
2022-12-19T19:42:49.447Z,23.67
2022-12-19T19:45:18.199Z,27.83
2022-12-19T19:47:46.907Z,26.25
2022-12-19T19:50:15.750Z,27.95
2022-12-19T19:52:44.441Z,26.30
2022-12-19T19:55:15.480Z,28.10
2022-12-19T19:57:44.358Z,25.10
2022-12-19T20:00:13.628Z,24.40
2022-12-19T20:02:42.970Z,25.60
2022-12-19T20:05:12.000Z,26.13
2022-12-19T20:07:40.841Z,26.58
2022-12-19T20:10:10.999Z,25.10
2022-12-19T20:12:40.048Z,24.95
2022-12-19T20:15:09.331Z,25.00
2022-12-19T20:17:38.130Z,27.55
2022-12-19T20:20:08.738Z,25.45
2022-12-19T20:22:37.711Z,26.45
2022-12-19T20:25:06.535Z,26.80
2022-12-19T20:27:35.395Z,27.52
2022-12-19T20:30:05.318Z,25.23
2022-12-19T20:32:34.549Z,24.95
2022-12-19T20:35:03.607Z,24.40
2022-12-19T20:37:33.940Z,23.48
2022-12-19T20:40:02.643Z,23.52
2022-12-19T20:42:31.429Z,24.10
2022-12-19T20:45:00.042Z,24.13
2022-12-19T20:47:29.870Z,25.52
2022-12-19T20:49:58.460Z,25.92
2022-12-19T20:52:27.304Z,24.67
2022-12-19T20:54:55.938Z,25.27
2022-12-19T20:57:24.692Z,22.20
2022-12-19T20:59:53.296Z,23.48
2022-12-19T21:02:22.269Z,24.80
2022-12-19T21:04:51.143Z,26.10
2022-12-19T21:07:19.944Z,21.73
2022-12-19T21:09:51.030Z,23.73
2022-12-19T21:12:19.795Z,20.65
2022-12-19T21:14:48.886Z,20.27
2022-12-19T21:17:17.746Z,22.47
2022-12-19T21:19:46.759Z,20.47
2022-12-19T21:22:15.587Z,20.15
2022-12-19T21:24:44.193Z,20.02
2022-12-19T21:27:12.964Z,20.67
2022-12-19T21:29:41.530Z,22.25
2022-12-19T21:32:16.818Z,19.43
2022-12-19T21:34:47.555Z,21.80
2022-12-19T21:37:16.382Z,23.30
2022-12-19T21:39:45.365Z,22.88
2022-12-19T21:42:14.031Z,20.85
2022-12-19T21:44:42.831Z,23.45
2022-12-19T21:47:11.460Z,22.08
2022-12-19T21:49:40.748Z,21.10
2022-12-19T21:52:09.715Z,23.08
2022-12-19T21:54:38.587Z,25.70
2022-12-19T21:57:07.157Z,23.83
2022-12-19T21:59:36.003Z,25.60
2022-12-19T22:02:04.709Z,25.83
2022-12-19T22:04:33.517Z,24.17
2022-12-19T22:07:06.239Z,22.45
2022-12-19T22:09:35.454Z,23.80
2022-12-19T22:12:04.082Z,25.75
2022-12-19T22:14:32.957Z,24.13
2022-12-19T22:17:01.575Z,24.25
2022-12-19T22:19:30.483Z,26.88
2022-12-19T22:21:59.084Z,25.60
2022-12-19T22:24:27.891Z,23.93
2022-12-19T22:26:56.513Z,25.40
2022-12-19T22:29:25.627Z,23.23
2022-12-19T22:31:54.360Z,23.88
2022-12-19T22:34:23.505Z,23.77
2022-12-19T22:36:52.127Z,23.38
2022-12-19T22:39:23.625Z,21.58
2022-12-19T22:41:52.632Z,25.30
2022-12-19T22:44:23.988Z,20.38
2022-12-19T22:46:53.759Z,23.05
2022-12-19T22:49:22.479Z,21.85
2022-12-19T22:51:51.287Z,23.83
2022-12-19T22:54:19.874Z,22.75
2022-12-19T22:56:52.544Z,22.23
2022-12-19T22:59:21.239Z,20.20
2022-12-19T23:01:49.977Z,22.95
2022-12-19T23:04:19.352Z,23.88
2022-12-19T23:06:48.201Z,21.80
2022-12-19T23:09:18.995Z,23.85
2022-12-19T23:11:50.355Z,24.90
2022-12-19T23:14:20.846Z,23.65
2022-12-19T23:16:50.072Z,22.07
2022-12-19T23:19:19.556Z,26.35
2022-12-19T23:21:48.519Z,24.63
2022-12-19T23:24:17.341Z,24.23
2022-12-19T23:26:46.233Z,20.40
2022-12-19T23:29:16.960Z,24.10
2022-12-19T23:31:48.077Z,22.05
2022-12-19T23:34:17.870Z,21.50
2022-12-19T23:39:36.056Z,19.52
2022-12-19T23:42:04.908Z,20.70
2022-12-19T23:44:33.907Z,18.53
2022-12-19T23:47:04.048Z,16.40
2022-12-19T23:49:34.459Z,18.33
2022-12-19T23:52:03.178Z,16.50
2022-12-19T23:54:32.247Z,15.07
2022-12-19T23:57:01.184Z,13.88
2022-12-19T23:59:29.926Z,11.68
